Santo Angelo, Brazil
Current Conditions -  °F | °C
As of 12:00 PM on Monday 29 Dec 2014 (Local Time) from SBSM Reporting Station
Broken Clouds Broken Clouds  
Wind Chill: 81°   Ceiling: 2700
Heat Index: 84°   Visibility: 6mi
Dew Point: 70°   Wind: 5mph
Humidity: 70%   Direction: NA
Pressure: 29.83"   Gusts: NA
Location:  28.3°S, 54.26°W
Report Text: SBSM 291400Z VRB04KT 9999 BKN027 27/21 Q1010
Loading
Personal Weather Stations






























Interactive Weather Map New forecast layout! Learn more

10-Day Weather Forecast

Advertisements
Track Severe Weather on mobile